sensor_id;sensor_type;location;lat;lon;timestamp;P1;durP1;ratioP1;P2;durP2;ratioP2
52033;SDS011;38045;52.988;6.536;2023-04-15T00:01:59;9.50;;;4.15;;
52033;SDS011;38045;52.988;6.536;2023-04-15T00:04:24;9.60;;;4.00;;
52033;SDS011;38045;52.988;6.536;2023-04-15T00:06:51;5.13;;;4.05;;
52033;SDS011;38045;52.988;6.536;2023-04-15T00:09:17;6.07;;;3.67;;
52033;SDS011;38045;52.988;6.536;2023-04-15T00:11:44;25.02;;;5.20;;
52033;SDS011;38045;52.988;6.536;2023-04-15T00:14:10;8.30;;;4.50;;
52033;SDS011;38045;52.988;6.536;2023-04-15T00:19:05;7.97;;;4.30;;
52033;SDS011;38045;52.988;6.536;2023-04-15T00:21:31;11.10;;;6.47;;
52033;SDS011;38045;52.988;6.536;2023-04-15T00:23:56;7.75;;;4.22;;
52033;SDS011;38045;52.988;6.536;2023-04-15T00:26:22;13.02;;;6.78;;
52033;SDS011;38045;52.988;6.536;2023-04-15T00:28:47;8.15;;;4.40;;
52033;SDS011;38045;52.988;6.536;2023-04-15T00:31:13;5.43;;;4.03;;
52033;SDS011;38045;52.988;6.536;2023-04-15T00:33:39;7.22;;;5.93;;
52033;SDS011;38045;52.988;6.536;2023-04-15T00:36:05;10.65;;;5.50;;
52033;SDS011;38045;52.988;6.536;2023-04-15T00:38:31;10.43;;;4.55;;
52033;SDS011;38045;52.988;6.536;2023-04-15T00:40:57;8.38;;;4.60;;
52033;SDS011;38045;52.988;6.536;2023-04-15T00:43:23;9.00;;;4.93;;
52033;SDS011;38045;52.988;6.536;2023-04-15T00:45:50;6.20;;;4.82;;
52033;SDS011;38045;52.988;6.536;2023-04-15T00:48:17;10.40;;;4.93;;
52033;SDS011;38045;52.988;6.536;2023-04-15T00:50:44;10.68;;;6.38;;
52033;SDS011;38045;52.988;6.536;2023-04-15T00:53:09;12.15;;;5.80;;
52033;SDS011;38045;52.988;6.536;2023-04-15T00:55:35;12.57;;;5.55;;
52033;SDS011;38045;52.988;6.536;2023-04-15T00:58:02;8.60;;;6.18;;
52033;SDS011;38045;52.988;6.536;2023-04-15T01:00:27;6.43;;;4.75;;
52033;SDS011;38045;52.988;6.536;2023-04-15T01:02:54;6.65;;;5.05;;
52033;SDS011;38045;52.988;6.536;2023-04-15T01:05:20;10.57;;;6.15;;
52033;SDS011;38045;52.988;6.536;2023-04-15T01:07:45;5.88;;;5.28;;
52033;SDS011;38045;52.988;6.536;2023-04-15T01:10:12;6.57;;;4.90;;
52033;SDS011;38045;52.988;6.536;2023-04-15T01:12:38;13.73;;;4.93;;
52033;SDS011;38045;52.988;6.536;2023-04-15T01:15:04;6.53;;;4.80;;
52033;SDS011;38045;52.988;6.536;2023-04-15T01:17:30;6.72;;;6.10;;
52033;SDS011;38045;52.988;6.536;2023-04-15T01:19:56;6.95;;;5.47;;
52033;SDS011;38045;52.988;6.536;2023-04-15T01:22:23;7.53;;;5.47;;
52033;SDS011;38045;52.988;6.536;2023-04-15T01:24:54;7.95;;;6.18;;
52033;SDS011;38045;52.988;6.536;2023-04-15T01:27:28;9.73;;;7.07;;
52033;SDS011;38045;52.988;6.536;2023-04-15T01:29:55;10.68;;;6.97;;
52033;SDS011;38045;52.988;6.536;2023-04-15T01:32:20;7.38;;;5.72;;
52033;SDS011;38045;52.988;6.536;2023-04-15T01:34:46;9.93;;;6.57;;
52033;SDS011;38045;52.988;6.536;2023-04-15T01:37:12;8.20;;;5.47;;
52033;SDS011;38045;52.988;6.536;2023-04-15T01:39:37;10.77;;;6.38;;
52033;SDS011;38045;52.988;6.536;2023-04-15T01:42:03;7.35;;;5.38;;
52033;SDS011;38045;52.988;6.536;2023-04-15T01:44:29;14.00;;;7.40;;
52033;SDS011;38045;52.988;6.536;2023-04-15T01:46:54;13.73;;;6.60;;
52033;SDS011;38045;52.988;6.536;2023-04-15T01:49:20;9.57;;;6.63;;
52033;SDS011;38045;52.988;6.536;2023-04-15T01:51:46;10.40;;;6.90;;
52033;SDS011;38045;52.988;6.536;2023-04-15T01:54:12;10.07;;;7.22;;
52033;SDS011;38045;52.988;6.536;2023-04-15T01:56:37;11.90;;;6.43;;
52033;SDS011;38045;52.988;6.536;2023-04-15T01:59:03;8.38;;;7.43;;
52033;SDS011;38045;52.988;6.536;2023-04-15T02:01:28;8.38;;;6.15;;
52033;SDS011;38045;52.988;6.536;2023-04-15T02:03:54;8.02;;;6.18;;
52033;SDS011;38045;52.988;6.536;2023-04-15T02:06:20;9.32;;;7.38;;
52033;SDS011;38045;52.988;6.536;2023-04-15T02:08:46;9.50;;;6.90;;
52033;SDS011;38045;52.988;6.536;2023-04-15T02:11:11;9.35;;;6.50;;
52033;SDS011;38045;52.988;6.536;2023-04-15T02:13:37;9.63;;;7.07;;
52033;SDS011;38045;52.988;6.536;2023-04-15T02:16:03;6.90;;;5.63;;
52033;SDS011;38045;52.988;6.536;2023-04-15T02:18:28;9.88;;;6.53;;
52033;SDS011;38045;52.988;6.536;2023-04-15T02:20:54;14.38;;;8.15;;
52033;SDS011;38045;52.988;6.536;2023-04-15T02:23:22;9.43;;;7.97;;
52033;SDS011;38045;52.988;6.536;2023-04-15T02:25:48;10.38;;;6.93;;
52033;SDS011;38045;52.988;6.536;2023-04-15T02:28:13;9.35;;;7.63;;
52033;SDS011;38045;52.988;6.536;2023-04-15T02:30:39;11.75;;;8.10;;
52033;SDS011;38045;52.988;6.536;2023-04-15T02:33:05;10.32;;;7.28;;
52033;SDS011;38045;52.988;6.536;2023-04-15T02:35:31;11.55;;;8.20;;
52033;SDS011;38045;52.988;6.536;2023-04-15T02:37:57;13.30;;;9.27;;
52033;SDS011;38045;52.988;6.536;2023-04-15T02:40:23;10.43;;;7.82;;
52033;SDS011;38045;52.988;6.536;2023-04-15T02:42:48;11.35;;;7.60;;
52033;SDS011;38045;52.988;6.536;2023-04-15T02:45:14;12.32;;;8.23;;
52033;SDS011;38045;52.988;6.536;2023-04-15T02:47:40;10.48;;;8.20;;
52033;SDS011;38045;52.988;6.536;2023-04-15T02:50:06;11.88;;;8.20;;
52033;SDS011;38045;52.988;6.536;2023-04-15T02:52:38;11.35;;;7.53;;
52033;SDS011;38045;52.988;6.536;2023-04-15T02:55:05;9.77;;;7.13;;
52033;SDS011;38045;52.988;6.536;2023-04-15T02:57:32;9.55;;;8.48;;
52033;SDS011;38045;52.988;6.536;2023-04-15T02:59:58;12.93;;;9.23;;
52033;SDS011;38045;52.988;6.536;2023-04-15T03:02:24;9.55;;;7.03;;
52033;SDS011;38045;52.988;6.536;2023-04-15T03:04:50;11.20;;;8.02;;
52033;SDS011;38045;52.988;6.536;2023-04-15T03:07:16;13.82;;;9.13;;
52033;SDS011;38045;52.988;6.536;2023-04-15T03:09:42;10.65;;;7.13;;
52033;SDS011;38045;52.988;6.536;2023-04-15T03:12:08;17.85;;;9.48;;
52033;SDS011;38045;52.988;6.536;2023-04-15T03:14:34;11.93;;;8.95;;
52033;SDS011;38045;52.988;6.536;2023-04-15T03:16:59;13.27;;;8.23;;
52033;SDS011;38045;52.988;6.536;2023-04-15T03:19:25;15.38;;;8.75;;
52033;SDS011;38045;52.988;6.536;2023-04-15T03:21:51;8.88;;;7.22;;
52033;SDS011;38045;52.988;6.536;2023-04-15T03:24:17;9.73;;;6.82;;
52033;SDS011;38045;52.988;6.536;2023-04-15T03:26:42;8.85;;;7.90;;
52033;SDS011;38045;52.988;6.536;2023-04-15T03:29:08;13.60;;;7.85;;
52033;SDS011;38045;52.988;6.536;2023-04-15T03:31:34;15.00;;;10.50;;
52033;SDS011;38045;52.988;6.536;2023-04-15T03:33:59;16.27;;;9.05;;
52033;SDS011;38045;52.988;6.536;2023-04-15T03:36:25;10.52;;;8.55;;
52033;SDS011;38045;52.988;6.536;2023-04-15T03:38:53;11.68;;;9.38;;
52033;SDS011;38045;52.988;6.536;2023-04-15T03:41:20;13.23;;;9.23;;
52033;SDS011;38045;52.988;6.536;2023-04-15T03:43:45;15.15;;;9.70;;
52033;SDS011;38045;52.988;6.536;2023-04-15T03:46:11;11.88;;;8.55;;
52033;SDS011;38045;52.988;6.536;2023-04-15T03:48:36;12.00;;;8.73;;
52033;SDS011;38045;52.988;6.536;2023-04-15T03:51:02;12.77;;;8.82;;
52033;SDS011;38045;52.988;6.536;2023-04-15T03:53:27;10.27;;;8.70;;
52033;SDS011;38045;52.988;6.536;2023-04-15T03:55:53;18.08;;;10.43;;
52033;SDS011;38045;52.988;6.536;2023-04-15T03:58:19;11.68;;;10.45;;
52033;SDS011;38045;52.988;6.536;2023-04-15T04:00:44;12.30;;;9.35;;
52033;SDS011;38045;52.988;6.536;2023-04-15T04:03:10;9.90;;;8.20;;
52033;SDS011;38045;52.988;6.536;2023-04-15T04:05:36;15.15;;;9.88;;
52033;SDS011;38045;52.988;6.536;2023-04-15T04:08:03;16.63;;;12.00;;
52033;SDS011;38045;52.988;6.536;2023-04-15T04:10:28;21.00;;;13.45;;
52033;SDS011;38045;52.988;6.536;2023-04-15T04:12:54;18.38;;;12.45;;
52033;SDS011;38045;52.988;6.536;2023-04-15T04:15:19;17.65;;;11.50;;
52033;SDS011;38045;52.988;6.536;2023-04-15T04:17:45;16.98;;;13.10;;
52033;SDS011;38045;52.988;6.536;2023-04-15T04:20:11;14.85;;;11.70;;
52033;SDS011;38045;52.988;6.536;2023-04-15T04:22:37;15.10;;;11.95;;
52033;SDS011;38045;52.988;6.536;2023-04-15T04:25:04;21.88;;;12.75;;
52033;SDS011;38045;52.988;6.536;2023-04-15T04:27:30;18.05;;;14.00;;
52033;SDS011;38045;52.988;6.536;2023-04-15T04:29:55;16.85;;;12.15;;
52033;SDS011;38045;52.988;6.536;2023-04-15T04:32:21;15.55;;;12.85;;
52033;SDS011;38045;52.988;6.536;2023-04-15T04:34:46;14.80;;;11.95;;
52033;SDS011;38045;52.988;6.536;2023-04-15T04:37:12;17.88;;;12.73;;
52033;SDS011;38045;52.988;6.536;2023-04-15T04:39:38;22.77;;;15.48;;
52033;SDS011;38045;52.988;6.536;2023-04-15T04:42:04;15.77;;;12.45;;
52033;SDS011;38045;52.988;6.536;2023-04-15T04:44:29;17.15;;;13.13;;
52033;SDS011;38045;52.988;6.536;2023-04-15T04:46:55;16.00;;;12.55;;
52033;SDS011;38045;52.988;6.536;2023-04-15T04:49:20;18.73;;;13.23;;
52033;SDS011;38045;52.988;6.536;2023-04-15T04:51:46;15.85;;;11.70;;
52033;SDS011;38045;52.988;6.536;2023-04-15T04:54:12;18.52;;;14.60;;
52033;SDS011;38045;52.988;6.536;2023-04-15T04:56:38;18.75;;;14.60;;
52033;SDS011;38045;52.988;6.536;2023-04-15T04:59:04;18.52;;;14.43;;
52033;SDS011;38045;52.988;6.536;2023-04-15T05:01:29;17.25;;;12.75;;
52033;SDS011;38045;52.988;6.536;2023-04-15T05:03:55;15.68;;;12.15;;
52033;SDS011;38045;52.988;6.536;2023-04-15T05:06:21;21.42;;;14.85;;
52033;SDS011;38045;52.988;6.536;2023-04-15T05:08:46;17.90;;;13.20;;
52033;SDS011;38045;52.988;6.536;2023-04-15T05:11:12;19.33;;;15.43;;
52033;SDS011;38045;52.988;6.536;2023-04-15T05:13:38;20.70;;;13.48;;
52033;SDS011;38045;52.988;6.536;2023-04-15T05:16:04;22.17;;;14.68;;
52033;SDS011;38045;52.988;6.536;2023-04-15T05:18:30;18.42;;;15.77;;
52033;SDS011;38045;52.988;6.536;2023-04-15T05:20:56;18.02;;;15.88;;
52033;SDS011;38045;52.988;6.536;2023-04-15T05:23:22;23.63;;;15.10;;
52033;SDS011;38045;52.988;6.536;2023-04-15T05:25:47;21.45;;;14.82;;
52033;SDS011;38045;52.988;6.536;2023-04-15T05:28:13;21.23;;;15.35;;
52033;SDS011;38045;52.988;6.536;2023-04-15T05:30:38;22.38;;;16.80;;
52033;SDS011;38045;52.988;6.536;2023-04-15T05:33:04;21.45;;;15.27;;
52033;SDS011;38045;52.988;6.536;2023-04-15T05:35:30;20.60;;;14.52;;
52033;SDS011;38045;52.988;6.536;2023-04-15T05:37:55;20.90;;;16.00;;
52033;SDS011;38045;52.988;6.536;2023-04-15T05:40:21;24.15;;;15.43;;
52033;SDS011;38045;52.988;6.536;2023-04-15T05:42:47;20.98;;;15.20;;
52033;SDS011;38045;52.988;6.536;2023-04-15T05:45:13;22.75;;;15.43;;
52033;SDS011;38045;52.988;6.536;2023-04-15T05:47:38;21.08;;;15.95;;
52033;SDS011;38045;52.988;6.536;2023-04-15T05:50:04;22.58;;;17.30;;
52033;SDS011;38045;52.988;6.536;2023-04-15T05:52:30;17.92;;;13.45;;
52033;SDS011;38045;52.988;6.536;2023-04-15T05:54:56;21.02;;;16.77;;
52033;SDS011;38045;52.988;6.536;2023-04-15T05:57:22;20.25;;;16.10;;
52033;SDS011;38045;52.988;6.536;2023-04-15T05:59:47;21.83;;;16.15;;
52033;SDS011;38045;52.988;6.536;2023-04-15T06:02:15;19.23;;;14.25;;
52033;SDS011;38045;52.988;6.536;2023-04-15T06:04:41;20.92;;;14.95;;
52033;SDS011;38045;52.988;6.536;2023-04-15T06:07:07;17.15;;;13.93;;
52033;SDS011;38045;52.988;6.536;2023-04-15T06:09:32;20.88;;;14.20;;
52033;SDS011;38045;52.988;6.536;2023-04-15T06:11:58;17.92;;;14.35;;
52033;SDS011;38045;52.988;6.536;2023-04-15T06:14:25;15.93;;;12.98;;
52033;SDS011;38045;52.988;6.536;2023-04-15T06:16:51;17.52;;;14.30;;
52033;SDS011;38045;52.988;6.536;2023-04-15T06:19:17;15.82;;;13.25;;
52033;SDS011;38045;52.988;6.536;2023-04-15T06:21:43;18.40;;;14.80;;
52033;SDS011;38045;52.988;6.536;2023-04-15T06:24:10;20.48;;;14.57;;
52033;SDS011;38045;52.988;6.536;2023-04-15T06:26:36;14.93;;;11.48;;
52033;SDS011;38045;52.988;6.536;2023-04-15T06:29:01;15.07;;;12.05;;
52033;SDS011;38045;52.988;6.536;2023-04-15T06:31:27;20.85;;;14.02;;
52033;SDS011;38045;52.988;6.536;2023-04-15T06:33:53;17.55;;;14.40;;
52033;SDS011;38045;52.988;6.536;2023-04-15T06:36:18;19.52;;;11.57;;
52033;SDS011;38045;52.988;6.536;2023-04-15T06:38:44;13.45;;;12.02;;
52033;SDS011;38045;52.988;6.536;2023-04-15T06:41:10;15.68;;;12.98;;
52033;SDS011;38045;52.988;6.536;2023-04-15T06:43:36;15.73;;;12.82;;
52033;SDS011;38045;52.988;6.536;2023-04-15T06:46:01;16.17;;;12.20;;
52033;SDS011;38045;52.988;6.536;2023-04-15T06:48:27;18.67;;;12.07;;
52033;SDS011;38045;52.988;6.536;2023-04-15T06:50:52;15.18;;;10.77;;
52033;SDS011;38045;52.988;6.536;2023-04-15T06:53:18;15.15;;;12.60;;
52033;SDS011;38045;52.988;6.536;2023-04-15T06:55:44;15.32;;;12.95;;
52033;SDS011;38045;52.988;6.536;2023-04-15T06:58:10;17.60;;;12.90;;
52033;SDS011;38045;52.988;6.536;2023-04-15T07:00:35;16.42;;;12.13;;
52033;SDS011;38045;52.988;6.536;2023-04-15T07:03:03;17.60;;;12.23;;
52033;SDS011;38045;52.988;6.536;2023-04-15T07:05:29;13.10;;;11.73;;
52033;SDS011;38045;52.988;6.536;2023-04-15T07:07:56;14.82;;;13.27;;
52033;SDS011;38045;52.988;6.536;2023-04-15T07:10:22;15.27;;;11.57;;
52033;SDS011;38045;52.988;6.536;2023-04-15T07:12:48;16.23;;;11.90;;
52033;SDS011;38045;52.988;6.536;2023-04-15T07:15:15;13.20;;;10.55;;
52033;SDS011;38045;52.988;6.536;2023-04-15T07:17:40;16.65;;;11.52;;
52033;SDS011;38045;52.988;6.536;2023-04-15T07:20:07;16.10;;;11.95;;
52033;SDS011;38045;52.988;6.536;2023-04-15T07:22:33;14.13;;;11.60;;
52033;SDS011;38045;52.988;6.536;2023-04-15T07:24:59;20.38;;;11.20;;
52033;SDS011;38045;52.988;6.536;2023-04-15T07:27:25;16.35;;;10.70;;
52033;SDS011;38045;52.988;6.536;2023-04-15T07:29:51;12.00;;;10.07;;
52033;SDS011;38045;52.988;6.536;2023-04-15T07:32:17;10.65;;;8.50;;
52033;SDS011;38045;52.988;6.536;2023-04-15T07:34:43;13.77;;;10.88;;
52033;SDS011;38045;52.988;6.536;2023-04-15T07:37:09;12.98;;;9.75;;
52033;SDS011;38045;52.988;6.536;2023-04-15T07:39:34;13.77;;;10.50;;
52033;SDS011;38045;52.988;6.536;2023-04-15T07:42:01;11.57;;;9.77;;
52033;SDS011;38045;52.988;6.536;2023-04-15T07:44:26;12.48;;;9.05;;
52033;SDS011;38045;52.988;6.536;2023-04-15T07:46:52;13.35;;;8.27;;
52033;SDS011;38045;52.988;6.536;2023-04-15T07:49:18;9.70;;;8.13;;
52033;SDS011;38045;52.988;6.536;2023-04-15T07:51:45;11.15;;;9.27;;
52033;SDS011;38045;52.988;6.536;2023-04-15T07:54:11;10.35;;;8.93;;
52033;SDS011;38045;52.988;6.536;2023-04-15T07:56:36;8.68;;;6.57;;
52033;SDS011;38045;52.988;6.536;2023-04-15T07:59:02;9.82;;;7.75;;
52033;SDS011;38045;52.988;6.536;2023-04-15T08:01:29;15.30;;;8.23;;
52033;SDS011;38045;52.988;6.536;2023-04-15T08:03:55;7.97;;;6.13;;
52033;SDS011;38045;52.988;6.536;2023-04-15T08:06:21;11.40;;;7.15;;
52033;SDS011;38045;52.988;6.536;2023-04-15T08:08:47;10.00;;;8.52;;
52033;SDS011;38045;52.988;6.536;2023-04-15T08:11:13;7.47;;;6.03;;
52033;SDS011;38045;52.988;6.536;2023-04-15T08:13:38;7.82;;;4.88;;
52033;SDS011;38045;52.988;6.536;2023-04-15T08:18:59;6.57;;;4.32;;
52033;SDS011;38045;52.988;6.536;2023-04-15T08:21:25;7.95;;;5.15;;
52033;SDS011;38045;52.988;6.536;2023-04-15T08:23:51;8.50;;;6.15;;
52033;SDS011;38045;52.988;6.536;2023-04-15T08:26:18;7.95;;;4.75;;
52033;SDS011;38045;52.988;6.536;2023-04-15T08:28:45;6.10;;;5.50;;
52033;SDS011;38045;52.988;6.536;2023-04-15T08:31:11;7.72;;;6.28;;
52033;SDS011;38045;52.988;6.536;2023-04-15T08:33:38;8.73;;;6.28;;
52033;SDS011;38045;52.988;6.536;2023-04-15T08:36:04;8.75;;;6.05;;
52033;SDS011;38045;52.988;6.536;2023-04-15T08:38:30;6.72;;;5.60;;
52033;SDS011;38045;52.988;6.536;2023-04-15T08:40:56;8.57;;;6.45;;
52033;SDS011;38045;52.988;6.536;2023-04-15T08:43:26;9.52;;;6.80;;
52033;SDS011;38045;52.988;6.536;2023-04-15T08:45:54;9.70;;;6.18;;
52033;SDS011;38045;52.988;6.536;2023-04-15T08:48:23;9.20;;;6.50;;
52033;SDS011;38045;52.988;6.536;2023-04-15T08:50:53;8.98;;;6.25;;
52033;SDS011;38045;52.988;6.536;2023-04-15T08:53:19;10.80;;;6.13;;
52033;SDS011;38045;52.988;6.536;2023-04-15T08:55:45;7.13;;;6.10;;
52033;SDS011;38045;52.988;6.536;2023-04-15T08:58:15;8.93;;;5.85;;
52033;SDS011;38045;52.988;6.536;2023-04-15T09:00:41;8.05;;;6.18;;
52033;SDS011;38045;52.988;6.536;2023-04-15T09:03:07;7.63;;;4.63;;
52033;SDS011;38045;52.988;6.536;2023-04-15T09:05:37;10.57;;;6.40;;
52033;SDS011;38045;52.988;6.536;2023-04-15T09:10:29;7.90;;;4.85;;
52033;SDS011;38045;52.988;6.536;2023-04-15T09:12:56;10.40;;;5.68;;
52033;SDS011;38045;52.988;6.536;2023-04-15T09:15:23;8.02;;;4.20;;
52033;SDS011;38045;52.988;6.536;2023-04-15T09:17:51;7.47;;;4.30;;
52033;SDS011;38045;52.988;6.536;2023-04-15T09:20:18;7.18;;;4.10;;
52033;SDS011;38045;52.988;6.536;2023-04-15T09:22:44;6.95;;;4.97;;
52033;SDS011;38045;52.988;6.536;2023-04-15T09:28:13;12.13;;;3.75;;
52033;SDS011;38045;52.988;6.536;2023-04-15T09:30:32;7.25;;;3.00;;
52033;SDS011;38045;52.988;6.536;2023-04-15T09:32:59;5.72;;;3.25;;
52033;SDS011;38045;52.988;6.536;2023-04-15T09:35:35;10.05;;;3.38;;
52033;SDS011;38045;52.988;6.536;2023-04-15T09:38:04;5.15;;;2.65;;
52033;SDS011;38045;52.988;6.536;2023-04-15T09:40:34;7.93;;;3.50;;
52033;SDS011;38045;52.988;6.536;2023-04-15T09:45:27;5.18;;;3.20;;
52033;SDS011;38045;52.988;6.536;2023-04-15T09:47:53;3.78;;;3.30;;
52033;SDS011;38045;52.988;6.536;2023-04-15T09:50:18;9.48;;;3.85;;
52033;SDS011;38045;52.988;6.536;2023-04-15T09:52:45;5.15;;;2.42;;
52033;SDS011;38045;52.988;6.536;2023-04-15T09:55:11;5.93;;;2.10;;
52033;SDS011;38045;52.988;6.536;2023-04-15T09:57:38;4.30;;;2.78;;
52033;SDS011;38045;52.988;6.536;2023-04-15T10:00:08;2.80;;;2.00;;
52033;SDS011;38045;52.988;6.536;2023-04-15T10:02:35;4.35;;;2.92;;
52033;SDS011;38045;52.988;6.536;2023-04-15T10:05:03;3.33;;;2.00;;
52033;SDS011;38045;52.988;6.536;2023-04-15T10:07:30;1.83;;;1.50;;
52033;SDS011;38045;52.988;6.536;2023-04-15T10:09:56;1.80;;;1.70;;
52033;SDS011;38045;52.988;6.536;2023-04-15T10:12:26;4.30;;;1.67;;
52033;SDS011;38045;52.988;6.536;2023-04-15T10:14:55;6.03;;;1.77;;
52033;SDS011;38045;52.988;6.536;2023-04-15T10:17:23;3.88;;;2.22;;
52033;SDS011;38045;52.988;6.536;2023-04-15T10:19:58;3.20;;;2.22;;
52033;SDS011;38045;52.988;6.536;2023-04-15T10:22:26;3.75;;;2.85;;
52033;SDS011;38045;52.988;6.536;2023-04-15T10:24:52;2.22;;;1.48;;
52033;SDS011;38045;52.988;6.536;2023-04-15T10:27:20;3.40;;;2.35;;
52033;SDS011;38045;52.988;6.536;2023-04-15T10:29:46;2.25;;;2.05;;
52033;SDS011;38045;52.988;6.536;2023-04-15T10:32:13;4.07;;;2.58;;
52033;SDS011;38045;52.988;6.536;2023-04-15T10:34:43;3.35;;;2.08;;
52033;SDS011;38045;52.988;6.536;2023-04-15T10:37:10;2.92;;;2.55;;
52033;SDS011;38045;52.988;6.536;2023-04-15T10:42:11;1.37;;;1.27;;
52033;SDS011;38045;52.988;6.536;2023-04-15T10:44:38;1.90;;;1.40;;
52033;SDS011;38045;52.988;6.536;2023-04-15T10:47:12;3.03;;;1.55;;
52033;SDS011;38045;52.988;6.536;2023-04-15T10:49:43;1.75;;;1.42;;
52033;SDS011;38045;52.988;6.536;2023-04-15T10:52:23;2.13;;;1.92;;
52033;SDS011;38045;52.988;6.536;2023-04-15T10:55:25;1.92;;;1.83;;
52033;SDS011;38045;52.988;6.536;2023-04-15T10:57:50;6.10;;;2.60;;
52033;SDS011;38045;52.988;6.536;2023-04-15T11:00:18;3.20;;;1.58;;
52033;SDS011;38045;52.988;6.536;2023-04-15T11:05:11;3.00;;;1.42;;
52033;SDS011;38045;52.988;6.536;2023-04-15T11:07:56;3.65;;;1.98;;
52033;SDS011;38045;52.988;6.536;2023-04-15T11:15:54;4.75;;;2.55;;
52033;SDS011;38045;52.988;6.536;2023-04-15T11:18:26;5.25;;;1.83;;
52033;SDS011;38045;52.988;6.536;2023-04-15T11:20:58;3.55;;;2.13;;
52033;SDS011;38045;52.988;6.536;2023-04-15T11:23:43;4.53;;;2.75;;
52033;SDS011;38045;52.988;6.536;2023-04-15T11:26:11;8.05;;;3.40;;
52033;SDS011;38045;52.988;6.536;2023-04-15T11:28:46;2.15;;;2.03;;
52033;SDS011;38045;52.988;6.536;2023-04-15T11:31:12;6.88;;;2.45;;
52033;SDS011;38045;52.988;6.536;2023-04-15T11:33:44;4.28;;;2.53;;
52033;SDS011;38045;52.988;6.536;2023-04-15T11:36:27;5.20;;;1.70;;
52033;SDS011;38045;52.988;6.536;2023-04-15T11:38:54;4.75;;;3.08;;
52033;SDS011;38045;52.988;6.536;2023-04-15T11:41:22;5.32;;;2.15;;
52033;SDS011;38045;52.988;6.536;2023-04-15T11:43:48;4.20;;;2.17;;
52033;SDS011;38045;52.988;6.536;2023-04-15T11:46:14;5.03;;;2.45;;
52033;SDS011;38045;52.988;6.536;2023-04-15T11:48:41;5.85;;;2.30;;
52033;SDS011;38045;52.988;6.536;2023-04-15T11:51:08;5.18;;;2.22;;
52033;SDS011;38045;52.988;6.536;2023-04-15T11:56:18;2.97;;;1.70;;
52033;SDS011;38045;52.988;6.536;2023-04-15T11:58:48;4.20;;;1.80;;
52033;SDS011;38045;52.988;6.536;2023-04-15T12:01:17;4.03;;;1.75;;
52033;SDS011;38045;52.988;6.536;2023-04-15T12:03:46;8.73;;;1.90;;
52033;SDS011;38045;52.988;6.536;2023-04-15T12:06:20;1.83;;;1.73;;
52033;SDS011;38045;52.988;6.536;2023-04-15T12:13:57;4.47;;;1.98;;
52033;SDS011;38045;52.988;6.536;2023-04-15T12:16:26;4.70;;;2.13;;
52033;SDS011;38045;52.988;6.536;2023-04-15T12:18:54;2.92;;;1.35;;
52033;SDS011;38045;52.988;6.536;2023-04-15T12:21:21;7.68;;;2.42;;
52033;SDS011;38045;52.988;6.536;2023-04-15T12:23:48;7.00;;;2.63;;
52033;SDS011;38045;52.988;6.536;2023-04-15T12:26:28;7.15;;;2.00;;
52033;SDS011;38045;52.988;6.536;2023-04-15T12:29:14;3.78;;;2.03;;
52033;SDS011;38045;52.988;6.536;2023-04-15T12:31:48;10.45;;;2.95;;
52033;SDS011;38045;52.988;6.536;2023-04-15T12:34:15;7.53;;;2.60;;
52033;SDS011;38045;52.988;6.536;2023-04-15T12:36:41;6.68;;;2.50;;
52033;SDS011;38045;52.988;6.536;2023-04-15T12:39:07;10.13;;;3.45;;
52033;SDS011;38045;52.988;6.536;2023-04-15T12:41:33;10.68;;;1.73;;
52033;SDS011;38045;52.988;6.536;2023-04-15T12:43:58;3.83;;;1.40;;
52033;SDS011;38045;52.988;6.536;2023-04-15T12:46:25;6.93;;;2.05;;
52033;SDS011;38045;52.988;6.536;2023-04-15T12:48:51;10.32;;;2.60;;
52033;SDS011;38045;52.988;6.536;2023-04-15T12:51:17;2.95;;;2.17;;
52033;SDS011;38045;52.988;6.536;2023-04-15T12:53:43;13.02;;;2.50;;
52033;SDS011;38045;52.988;6.536;2023-04-15T12:56:08;7.93;;;2.88;;
52033;SDS011;38045;52.988;6.536;2023-04-15T12:58:34;3.20;;;1.60;;
52033;SDS011;38045;52.988;6.536;2023-04-15T13:01:00;5.15;;;2.30;;
52033;SDS011;38045;52.988;6.536;2023-04-15T13:03:26;4.03;;;1.83;;
52033;SDS011;38045;52.988;6.536;2023-04-15T13:05:51;4.53;;;1.27;;
52033;SDS011;38045;52.988;6.536;2023-04-15T13:08:17;5.45;;;1.75;;
52033;SDS011;38045;52.988;6.536;2023-04-15T13:10:43;4.82;;;2.10;;
52033;SDS011;38045;52.988;6.536;2023-04-15T13:13:08;4.80;;;1.48;;
52033;SDS011;38045;52.988;6.536;2023-04-15T13:15:34;6.70;;;2.08;;
52033;SDS011;38045;52.988;6.536;2023-04-15T13:17:59;2.33;;;1.67;;
52033;SDS011;38045;52.988;6.536;2023-04-15T13:20:25;4.75;;;1.85;;
52033;SDS011;38045;52.988;6.536;2023-04-15T13:22:51;7.57;;;1.95;;
52033;SDS011;38045;52.988;6.536;2023-04-15T13:25:18;6.35;;;2.60;;
52033;SDS011;38045;52.988;6.536;2023-04-15T13:27:44;6.15;;;1.65;;
52033;SDS011;38045;52.988;6.536;2023-04-15T13:30:09;8.15;;;2.42;;
52033;SDS011;38045;52.988;6.536;2023-04-15T13:32:35;3.03;;;1.27;;
52033;SDS011;38045;52.988;6.536;2023-04-15T13:35:01;8.88;;;2.28;;
52033;SDS011;38045;52.988;6.536;2023-04-15T13:37:27;6.38;;;2.75;;
52033;SDS011;38045;52.988;6.536;2023-04-15T13:39:54;6.75;;;3.05;;
52033;SDS011;38045;52.988;6.536;2023-04-15T13:42:20;8.20;;;1.98;;
52033;SDS011;38045;52.988;6.536;2023-04-15T13:44:46;3.28;;;1.40;;
52033;SDS011;38045;52.988;6.536;2023-04-15T13:47:13;5.25;;;1.85;;
52033;SDS011;38045;52.988;6.536;2023-04-15T13:49:40;7.00;;;2.65;;
52033;SDS011;38045;52.988;6.536;2023-04-15T13:52:05;7.75;;;2.15;;
52033;SDS011;38045;52.988;6.536;2023-04-15T13:54:31;5.95;;;1.83;;
52033;SDS011;38045;52.988;6.536;2023-04-15T13:56:57;6.50;;;2.05;;
52033;SDS011;38045;52.988;6.536;2023-04-15T13:59:22;11.63;;;2.63;;
52033;SDS011;38045;52.988;6.536;2023-04-15T14:01:48;8.65;;;2.13;;
52033;SDS011;38045;52.988;6.536;2023-04-15T14:04:13;7.03;;;1.67;;
52033;SDS011;38045;52.988;6.536;2023-04-15T14:06:39;5.97;;;1.92;;
52033;SDS011;38045;52.988;6.536;2023-04-15T14:09:05;4.55;;;1.88;;
52033;SDS011;38045;52.988;6.536;2023-04-15T14:11:30;3.22;;;1.05;;
52033;SDS011;38045;52.988;6.536;2023-04-15T14:13:56;4.50;;;1.98;;
52033;SDS011;38045;52.988;6.536;2023-04-15T14:16:22;6.95;;;2.03;;
52033;SDS011;38045;52.988;6.536;2023-04-15T14:18:47;10.05;;;2.22;;
52033;SDS011;38045;52.988;6.536;2023-04-15T14:21:13;4.40;;;1.83;;
52033;SDS011;38045;52.988;6.536;2023-04-15T14:23:39;6.40;;;2.08;;
52033;SDS011;38045;52.988;6.536;2023-04-15T14:26:05;5.43;;;1.58;;
52033;SDS011;38045;52.988;6.536;2023-04-15T14:28:30;6.22;;;2.35;;
52033;SDS011;38045;52.988;6.536;2023-04-15T14:30:56;8.48;;;3.30;;
52033;SDS011;38045;52.988;6.536;2023-04-15T14:33:22;1.90;;;1.73;;
52033;SDS011;38045;52.988;6.536;2023-04-15T14:35:48;3.13;;;1.65;;
52033;SDS011;38045;52.988;6.536;2023-04-15T14:38:15;4.65;;;2.28;;
52033;SDS011;38045;52.988;6.536;2023-04-15T14:40:40;1.70;;;1.58;;
52033;SDS011;38045;52.988;6.536;2023-04-15T14:43:06;5.20;;;1.92;;
52033;SDS011;38045;52.988;6.536;2023-04-15T14:45:31;7.80;;;1.83;;
52033;SDS011;38045;52.988;6.536;2023-04-15T14:47:57;4.90;;;2.05;;
52033;SDS011;38045;52.988;6.536;2023-04-15T14:50:23;8.25;;;2.25;;
52033;SDS011;38045;52.988;6.536;2023-04-15T14:52:49;12.43;;;3.70;;
52033;SDS011;38045;52.988;6.536;2023-04-15T14:55:15;8.27;;;2.70;;
52033;SDS011;38045;52.988;6.536;2023-04-15T14:57:41;10.10;;;2.72;;
52033;SDS011;38045;52.988;6.536;2023-04-15T15:00:07;5.97;;;1.90;;
52033;SDS011;38045;52.988;6.536;2023-04-15T15:02:35;6.45;;;3.30;;
52033;SDS011;38045;52.988;6.536;2023-04-15T15:05:01;9.82;;;2.58;;
52033;SDS011;38045;52.988;6.536;2023-04-15T15:07:27;6.55;;;2.00;;